createdAt,value
2018-08-11T00:00:11.169Z,28.8
2018-08-11T00:00:52.538Z,28.77
2018-08-11T00:01:33.425Z,28.76
2018-08-11T00:02:14.183Z,28.68
2018-08-11T00:02:54.924Z,28.73
2018-08-11T00:03:35.703Z,28.76
2018-08-11T00:04:16.476Z,28.74
2018-08-11T00:04:57.327Z,28.68
2018-08-11T00:05:38.116Z,28.74
2018-08-11T00:06:19.387Z,28.71
2018-08-11T00:07:00.189Z,28.68
2018-08-11T00:07:40.882Z,28.68
2018-08-11T00:08:21.663Z,28.74
2018-08-11T00:09:02.457Z,28.74
2018-08-11T00:09:43.236Z,28.71
2018-08-11T00:10:23.929Z,28.73
2018-08-11T00:11:04.726Z,28.73
2018-08-11T00:11:45.549Z,28.7
2018-08-11T00:12:26.397Z,28.7
2018-08-11T00:13:07.159Z,28.71
2018-08-11T00:13:48.024Z,28.7
2018-08-11T00:14:28.781Z,28.68
2018-08-11T00:15:09.604Z,28.64
2018-08-11T00:15:50.431Z,28.71
2018-08-11T00:16:31.218Z,28.64
2018-08-11T00:17:12.038Z,28.67
2018-08-11T00:17:52.797Z,28.66
2018-08-11T00:18:33.611Z,28.67
2018-08-11T00:19:14.436Z,28.64
2018-08-11T00:19:55.208Z,28.67
2018-08-11T00:20:35.966Z,28.59
2018-08-11T00:21:16.756Z,28.61
2018-08-11T00:21:57.595Z,28.68
2018-08-11T00:22:38.413Z,28.66
2018-08-11T00:23:19.279Z,28.7
2018-08-11T00:24:00.053Z,28.68
2018-08-11T00:24:40.784Z,28.62
2018-08-11T00:25:21.556Z,28.73
2018-08-11T00:26:02.331Z,28.71
2018-08-11T00:26:43.204Z,28.73
2018-08-11T00:27:23.969Z,28.64
2018-08-11T00:28:04.729Z,28.58
2018-08-11T00:28:45.617Z,28.59
2018-08-11T00:29:26.465Z,28.58
2018-08-11T00:30:07.292Z,28.62
2018-08-11T00:30:48.049Z,28.61
2018-08-11T00:31:28.847Z,28.66
2018-08-11T00:32:09.656Z,28.61
2018-08-11T00:32:50.350Z,28.64
2018-08-11T00:33:31.051Z,28.62
2018-08-11T00:34:11.808Z,28.62
2018-08-11T00:34:52.615Z,28.67
2018-08-11T00:35:33.441Z,28.71
2018-08-11T00:36:14.170Z,28.71
2018-08-11T00:36:54.975Z,28.67
2018-08-11T00:37:35.806Z,28.74
2018-08-11T00:38:16.674Z,28.76
2018-08-11T00:38:57.526Z,28.74
2018-08-11T00:39:38.267Z,28.74
2018-08-11T00:40:19.008Z,28.73
2018-08-11T00:40:59.755Z,28.76
2018-08-11T00:41:40.562Z,28.74
2018-08-11T00:42:21.410Z,28.77
2018-08-11T00:43:02.273Z,28.76
2018-08-11T00:43:42.974Z,28.78
2018-08-11T00:44:23.775Z,28.78
2018-08-11T00:45:04.575Z,28.77
2018-08-11T00:45:45.328Z,28.74
2018-08-11T00:46:26.084Z,28.83
2018-08-11T00:47:06.793Z,28.8
2018-08-11T00:47:47.595Z,28.8
2018-08-11T00:48:28.421Z,28.77
2018-08-11T00:49:09.212Z,28.71
2018-08-11T00:49:50.024Z,28.67
2018-08-11T00:50:30.749Z,28.74
2018-08-11T00:51:11.496Z,28.7
2018-08-11T00:51:52.277Z,28.74
2018-08-11T00:52:33.130Z,28.76
2018-08-11T00:53:13.870Z,28.71
2018-08-11T00:53:54.593Z,28.74
2018-08-11T00:54:35.421Z,28.78
2018-08-11T00:55:16.262Z,28.78
2018-08-11T00:55:57.057Z,28.73
2018-08-11T00:56:37.778Z,28.74
2018-08-11T00:57:18.492Z,28.77
2018-08-11T00:57:59.202Z,28.8
2018-08-11T00:58:39.998Z,28.8
2018-08-11T00:59:20.824Z,28.74
2018-08-11T01:00:01.668Z,28.78
2018-08-11T01:00:42.498Z,28.78
2018-08-11T01:01:23.263Z,28.8
2018-08-11T01:02:04.028Z,28.8
2018-08-11T01:02:44.839Z,28.74
2018-08-11T01:03:25.563Z,28.85
2018-08-11T01:04:06.304Z,28.86
2018-08-11T01:04:47.018Z,28.74
2018-08-11T01:05:27.841Z,28.78
2018-08-11T01:06:08.603Z,28.78
2018-08-11T01:06:49.382Z,28.83
2018-08-11T01:07:30.135Z,28.8
2018-08-11T01:08:10.970Z,28.8
2018-08-11T01:08:51.830Z,28.85
2018-08-11T01:09:32.646Z,28.78
2018-08-11T01:10:13.370Z,28.83
2018-08-11T01:10:54.231Z,28.76
2018-08-11T01:11:34.994Z,28.88
2018-08-11T01:12:15.734Z,28.78
2018-08-11T01:12:56.493Z,28.81
2018-08-11T01:13:37.236Z,28.81
2018-08-11T01:14:18.068Z,28.81
2018-08-11T01:14:58.855Z,28.81
2018-08-11T01:15:39.730Z,28.77
2018-08-11T01:16:20.474Z,28.86
2018-08-11T01:17:01.247Z,28.88
2018-08-11T01:17:41.999Z,28.89
2018-08-11T01:18:22.832Z,28.85
2018-08-11T01:19:03.669Z,28.85
2018-08-11T01:19:44.403Z,28.85
2018-08-11T01:20:25.225Z,28.86
2018-08-11T01:21:06.087Z,28.8
2018-08-11T01:21:46.986Z,28.78
2018-08-11T01:22:27.821Z,28.85
2018-08-11T01:23:08.584Z,28.83
2018-08-11T01:23:49.366Z,28.86
2018-08-11T01:24:30.128Z,28.83
2018-08-11T01:25:10.977Z,28.86
2018-08-11T01:25:51.756Z,28.9
2018-08-11T01:26:32.620Z,28.83
2018-08-11T01:27:13.353Z,28.85
2018-08-11T01:27:54.069Z,28.88
2018-08-11T01:28:34.904Z,28.88
2018-08-11T01:29:15.642Z,28.83
2018-08-11T01:29:56.419Z,28.85
2018-08-11T01:30:37.186Z,28.86
2018-08-11T01:31:18.032Z,28.85
2018-08-11T01:31:58.846Z,28.88
2018-08-11T01:32:39.709Z,28.8
2018-08-11T01:33:20.453Z,28.88
2018-08-11T01:34:01.191Z,28.85
2018-08-11T01:34:41.910Z,28.83
2018-08-11T01:35:22.631Z,28.86
2018-08-11T01:36:03.488Z,28.83
2018-08-11T01:36:44.222Z,28.88
2018-08-11T01:37:24.981Z,28.89
2018-08-11T01:38:05.794Z,28.85
2018-08-11T01:38:46.614Z,28.88
2018-08-11T01:39:28.102Z,28.89
2018-08-11T01:40:08.882Z,28.86
2018-08-11T01:40:49.685Z,28.89
2018-08-11T01:41:30.550Z,28.9
2018-08-11T01:42:11.323Z,28.88
2018-08-11T01:42:52.075Z,28.8
2018-08-11T01:43:32.866Z,28.76
2018-08-11T01:44:13.676Z,28.8
2018-08-11T01:44:54.496Z,28.9
2018-08-11T01:45:35.291Z,28.81
2018-08-11T01:46:16.033Z,28.88
2018-08-11T01:46:56.907Z,28.89
2018-08-11T01:47:37.693Z,28.85
2018-08-11T01:48:18.545Z,28.9
2018-08-11T01:48:59.264Z,28.89
2018-08-11T01:49:39.958Z,28.85
2018-08-11T01:50:20.679Z,28.89
2018-08-11T01:51:01.462Z,28.9
2018-08-11T01:51:42.319Z,28.85
2018-08-11T01:52:23.177Z,28.86
2018-08-11T01:53:03.944Z,28.85
2018-08-11T01:53:44.693Z,28.86
2018-08-11T01:54:25.518Z,28.81
2018-08-11T01:55:06.390Z,28.76
2018-08-11T01:55:47.126Z,28.83
2018-08-11T01:56:27.909Z,28.83
2018-08-11T01:57:08.678Z,28.85
2018-08-11T01:57:49.555Z,28.85
2018-08-11T01:58:30.335Z,28.86
2018-08-11T01:59:11.061Z,28.9
2018-08-11T01:59:51.839Z,28.86
2018-08-11T02:00:32.675Z,28.89
2018-08-11T02:01:13.486Z,28.86
2018-08-11T02:01:54.253Z,28.89
2018-08-11T02:02:35.007Z,28.8
2018-08-11T02:03:15.799Z,28.81
2018-08-11T02:03:56.642Z,28.81
2018-08-11T02:04:37.409Z,28.85
2018-08-11T02:05:18.157Z,28.85
2018-08-11T02:05:58.958Z,28.83
2018-08-11T02:06:39.859Z,28.86
2018-08-11T02:07:20.643Z,28.81
2018-08-11T02:08:01.468Z,28.8
2018-08-11T02:08:42.183Z,28.81
2018-08-11T02:09:22.897Z,28.85
2018-08-11T02:10:03.626Z,28.83
2018-08-11T02:10:44.423Z,28.85
2018-08-11T02:11:25.210Z,28.76
2018-08-11T02:12:05.978Z,28.83
2018-08-11T02:12:46.812Z,28.81
2018-08-11T02:13:27.625Z,28.88
2018-08-11T02:14:08.396Z,28.81
2018-08-11T02:14:49.233Z,28.86
2018-08-11T02:15:29.959Z,28.83
2018-08-11T02:16:10.751Z,28.7
2018-08-11T02:16:51.535Z,28.73
2018-08-11T02:17:32.322Z,28.68
2018-08-11T02:18:13.057Z,28.76
2018-08-11T02:18:53.810Z,28.76
2018-08-11T02:19:34.662Z,28.76
2018-08-11T02:20:15.435Z,28.77
2018-08-11T02:20:56.134Z,28.8
2018-08-11T02:21:36.934Z,28.8
2018-08-11T02:22:17.768Z,28.78
2018-08-11T02:22:58.546Z,28.74
2018-08-11T02:23:39.274Z,28.81
2018-08-11T02:24:19.996Z,28.81
2018-08-11T02:25:00.736Z,28.86
2018-08-11T02:25:41.567Z,28.8
2018-08-11T02:26:22.435Z,28.89
2018-08-11T02:27:03.274Z,28.9
2018-08-11T02:27:44.072Z,28.8
2018-08-11T02:28:24.825Z,28.77
2018-08-11T02:29:05.697Z,28.74
2018-08-11T02:29:46.513Z,28.7
2018-08-11T02:30:27.254Z,28.7
2018-08-11T02:31:07.934Z,28.73
2018-08-11T02:31:48.702Z,28.71
2018-08-11T02:32:29.533Z,28.71
2018-08-11T02:33:10.414Z,28.71
2018-08-11T02:33:51.273Z,28.74
2018-08-11T02:34:32.020Z,28.7
2018-08-11T02:35:12.805Z,28.73
2018-08-11T02:35:53.549Z,28.73
2018-08-11T02:36:34.269Z,28.67
2018-08-11T02:37:15.162Z,28.71
2018-08-11T02:37:55.880Z,28.68
2018-08-11T02:38:36.694Z,28.76
2018-08-11T02:39:17.497Z,28.73
2018-08-11T02:39:58.261Z,28.74
2018-08-11T02:40:39.106Z,28.76
2018-08-11T02:41:19.873Z,28.7
2018-08-11T02:42:00.672Z,28.77
2018-08-11T02:42:41.399Z,28.74
2018-08-11T02:43:22.254Z,28.76
2018-08-11T02:44:03.099Z,28.76
2018-08-11T02:44:43.924Z,28.71
2018-08-11T02:45:24.686Z,28.77
2018-08-11T02:46:05.429Z,28.71
2018-08-11T02:46:46.236Z,28.76
2018-08-11T02:47:27.068Z,28.7
2018-08-11T02:48:07.864Z,28.74
2018-08-11T02:48:48.614Z,28.71
2018-08-11T02:49:29.405Z,28.71
2018-08-11T02:50:10.228Z,28.67
2018-08-11T02:50:50.975Z,28.68
2018-08-11T02:51:31.739Z,28.64
2018-08-11T02:52:12.553Z,28.61
2018-08-11T02:52:53.364Z,28.66
2018-08-11T02:53:34.197Z,28.61
2018-08-11T02:54:14.917Z,28.59
2018-08-11T02:54:55.775Z,28.58
2018-08-11T02:55:36.608Z,28.58
2018-08-11T02:56:17.357Z,28.59
2018-08-11T02:56:58.100Z,28.59
2018-08-11T02:57:38.861Z,28.59
2018-08-11T02:58:19.667Z,28.59
2018-08-11T02:59:00.548Z,28.56
2018-08-11T02:59:41.396Z,28.51
2018-08-11T03:00:22.233Z,28.59
2018-08-11T03:01:03.050Z,28.61
2018-08-11T03:01:43.784Z,28.49
2018-08-11T03:02:24.561Z,28.48
2018-08-11T03:03:05.318Z,28.44
2018-08-11T03:03:46.089Z,28.58
2018-08-11T03:04:26.824Z,28.44
2018-08-11T03:05:07.715Z,28.49
2018-08-11T03:05:48.598Z,28.46
2018-08-11T03:06:29.427Z,28.48
2018-08-11T03:07:10.168Z,28.54
2018-08-11T03:07:50.912Z,28.55
2018-08-11T03:08:31.668Z,28.55
2018-08-11T03:09:12.498Z,28.55
2018-08-11T03:09:53.341Z,28.54
2018-08-11T03:10:34.193Z,28.55
2018-08-11T03:11:14.963Z,28.54
2018-08-11T03:11:55.737Z,28.51
2018-08-11T03:12:36.503Z,28.55
2018-08-11T03:13:17.351Z,28.48
2018-08-11T03:13:58.133Z,28.49
2018-08-11T03:14:38.860Z,28.48
2018-08-11T03:15:19.641Z,28.49
2018-08-11T03:16:00.452Z,28.48
2018-08-11T03:16:41.348Z,28.46
2018-08-11T03:17:22.134Z,28.49
2018-08-11T03:18:02.853Z,28.56
2018-08-11T03:18:43.581Z,28.51
2018-08-11T03:19:24.297Z,28.51
2018-08-11T03:20:05.170Z,28.51
2018-08-11T03:20:45.982Z,28.51
2018-08-11T03:21:26.721Z,28.61
2018-08-11T03:22:07.531Z,28.61
2018-08-11T03:22:48.319Z,28.62
2018-08-11T03:23:29.163Z,28.62
2018-08-11T03:24:09.979Z,28.61
2018-08-11T03:24:50.728Z,28.58
2018-08-11T03:25:31.521Z,28.49
2018-08-11T03:26:12.297Z,28.56
2018-08-11T03:26:53.075Z,28.52
2018-08-11T03:27:33.827Z,28.44
2018-08-11T03:28:14.589Z,28.52
2018-08-11T03:28:55.406Z,28.51
2018-08-11T03:29:36.196Z,28.51
2018-08-11T03:30:16.912Z,28.51
2018-08-11T03:30:57.754Z,28.48
2018-08-11T03:31:38.528Z,28.54
2018-08-11T03:32:19.362Z,28.48
2018-08-11T03:33:00.163Z,28.44
2018-08-11T03:33:40.883Z,28.48
2018-08-11T03:34:21.589Z,28.51
2018-08-11T03:35:02.442Z,28.48
2018-08-11T03:35:43.276Z,28.48
2018-08-11T03:36:24.144Z,28.49
2018-08-11T03:37:04.952Z,28.49
2018-08-11T03:37:45.676Z,28.48
2018-08-11T03:38:26.498Z,28.55
2018-08-11T03:39:07.321Z,28.51
2018-08-11T03:39:48.058Z,28.43
2018-08-11T03:40:28.778Z,28.49
2018-08-11T03:41:09.505Z,28.34
2018-08-11T03:41:50.327Z,28.34
2018-08-11T03:42:31.070Z,28.34
2018-08-11T03:43:11.863Z,28.44
2018-08-11T03:43:52.663Z,28.46
2018-08-11T03:44:33.496Z,28.37
2018-08-11T03:45:14.264Z,28.39
2018-08-11T03:45:55.115Z,28.44
2018-08-11T03:46:35.918Z,28.41
2018-08-11T03:47:16.671Z,28.36
2018-08-11T03:47:57.486Z,28.34
2018-08-11T03:48:38.317Z,28.44
2018-08-11T03:49:19.200Z,28.34
2018-08-11T03:50:00.100Z,28.44
2018-08-11T03:50:40.808Z,28.34
2018-08-11T03:51:21.580Z,28.46
2018-08-11T03:52:02.318Z,28.36
2018-08-11T03:52:43.157Z,28.43
2018-08-11T03:53:23.966Z,28.44
2018-08-11T03:54:04.787Z,28.48
2018-08-11T03:54:45.603Z,28.39
2018-08-11T03:55:26.360Z,28.31
2018-08-11T03:56:07.231Z,28.39
2018-08-11T03:56:48.006Z,28.37
2018-08-11T03:57:28.846Z,28.36
2018-08-11T03:58:09.584Z,28.34
2018-08-11T03:58:50.361Z,28.36
2018-08-11T03:59:31.185Z,28.36
2018-08-11T04:00:11.959Z,28.29
2018-08-11T04:00:52.727Z,28.31
2018-08-11T04:01:33.546Z,28.41
2018-08-11T04:02:14.408Z,28.24
2018-08-11T04:02:55.246Z,28.29
2018-08-11T04:03:36.027Z,28.34
2018-08-11T04:04:16.764Z,28.4
2018-08-11T04:04:57.607Z,28.36
2018-08-11T04:05:38.412Z,28.37
2018-08-11T04:06:19.148Z,28.36
2018-08-11T04:06:59.899Z,28.46
2018-08-11T04:07:40.669Z,28.34
2018-08-11T04:08:21.466Z,28.36
2018-08-11T04:09:02.329Z,28.39
2018-08-11T04:09:43.097Z,28.41
2018-08-11T04:10:23.831Z,28.49
2018-08-11T04:11:04.611Z,28.41
2018-08-11T04:11:45.382Z,28.39
2018-08-11T04:12:26.285Z,28.44
2018-08-11T04:13:07.019Z,28.39
2018-08-11T04:13:47.802Z,28.37
2018-08-11T04:14:28.612Z,28.44
2018-08-11T04:15:09.411Z,28.41
2018-08-11T04:15:50.232Z,28.4
2018-08-11T04:16:31.036Z,28.36
2018-08-11T04:17:11.742Z,28.37
2018-08-11T04:17:52.632Z,28.41
2018-08-11T04:18:33.388Z,28.41
2018-08-11T04:19:14.106Z,28.49
2018-08-11T04:19:54.877Z,28.34
2018-08-11T04:20:35.581Z,28.4
2018-08-11T04:21:16.448Z,28.4
2018-08-11T04:21:57.246Z,28.43
2018-08-11T04:22:37.989Z,28.49
2018-08-11T04:23:18.825Z,28.49
2018-08-11T04:23:59.650Z,28.41
2018-08-11T04:24:40.499Z,28.43
2018-08-11T04:25:21.253Z,28.4
2018-08-11T04:26:01.967Z,28.31
2018-08-11T04:26:42.709Z,28.51
2018-08-11T04:27:23.490Z,28.46
2018-08-11T04:28:04.321Z,28.48
2018-08-11T04:28:45.155Z,28.43
2018-08-11T04:29:25.907Z,28.33
2018-08-11T04:30:06.629Z,28.3
2018-08-11T04:30:47.419Z,28.3
2018-08-11T04:31:28.265Z,28.4
2018-08-11T04:32:09.064Z,28.33
2018-08-11T04:32:49.839Z,28.36
2018-08-11T04:33:30.586Z,28.36
2018-08-11T04:34:11.433Z,28.4
2018-08-11T04:34:52.167Z,28.33
2018-08-11T04:35:32.947Z,28.39
2018-08-11T04:36:13.776Z,28.41
2018-08-11T04:36:54.571Z,28.37
2018-08-11T04:37:35.424Z,28.27
2018-08-11T04:38:16.174Z,28.34
2018-08-11T04:38:56.875Z,28.33
2018-08-11T04:39:37.728Z,28.4
2018-08-11T04:40:18.496Z,28.41
2018-08-11T04:40:59.249Z,28.31
2018-08-11T04:41:39.958Z,28.41
2018-08-11T04:42:20.689Z,28.43
2018-08-11T04:43:01.532Z,28.36
2018-08-11T04:43:42.347Z,28.48
2018-08-11T04:44:23.222Z,28.34
2018-08-11T04:45:03.936Z,28.37
2018-08-11T04:45:44.661Z,28.46
2018-08-11T04:46:25.410Z,28.37
2018-08-11T04:47:06.172Z,28.48
2018-08-11T04:47:46.987Z,28.43
2018-08-11T04:48:27.749Z,28.55
2018-08-11T04:49:08.523Z,28.44
2018-08-11T04:49:49.389Z,28.44
2018-08-11T04:50:30.219Z,28.41
2018-08-11T04:51:11.003Z,28.4
2018-08-11T04:51:51.768Z,28.37
2018-08-11T04:52:32.480Z,28.34
2018-08-11T04:53:13.232Z,28.41
2018-08-11T04:53:54.091Z,28.36
2018-08-11T04:54:34.870Z,28.31
2018-08-11T04:55:15.738Z,28.36
2018-08-11T04:55:56.484Z,28.29
2018-08-11T04:56:37.289Z,28.31
2018-08-11T04:57:18.133Z,28.3
2018-08-11T04:57:58.901Z,28.34
2018-08-11T04:58:39.616Z,28.3
2018-08-11T04:59:20.347Z,28.25
2018-08-11T05:00:01.106Z,28.27
2018-08-11T05:00:41.968Z,28.33
2018-08-11T05:01:22.788Z,28.36
2018-08-11T05:02:03.553Z,28.25
2018-08-11T05:02:44.313Z,28.29
2018-08-11T05:03:25.085Z,28.31
2018-08-11T05:04:05.824Z,28.3
2018-08-11T05:04:46.652Z,28.36
2018-08-11T05:05:27.440Z,28.24
2018-08-11T05:06:08.171Z,28.15
2018-08-11T05:06:48.991Z,28.22
2018-08-11T05:07:29.757Z,28.27
2018-08-11T05:08:10.582Z,28.21
2018-08-11T05:08:51.331Z,28.24
2018-08-11T05:09:32.068Z,28.27
2018-08-11T05:10:12.891Z,28.25
2018-08-11T05:10:53.639Z,28.24
2018-08-11T05:11:34.371Z,28.24
2018-08-11T05:12:15.121Z,28.24
2018-08-11T05:12:55.842Z,28.22
2018-08-11T05:13:36.694Z,28.24
2018-08-11T05:14:17.480Z,28.25
2018-08-11T05:14:58.209Z,28.24
2018-08-11T05:15:39.043Z,28.19
2018-08-11T05:16:19.841Z,28.21
2018-08-11T05:17:00.674Z,28.15
2018-08-11T05:17:41.359Z,28.17
2018-08-11T05:18:22.104Z,28.17
2018-08-11T05:19:02.819Z,28.18
2018-08-11T05:19:43.652Z,28.07
2018-08-11T05:20:24.457Z,28.21
2018-08-11T05:21:05.310Z,28.09
2018-08-11T05:21:46.121Z,28.06
2018-08-11T05:22:26.829Z,28.17
2018-08-11T05:23:07.693Z,28.11
2018-08-11T05:23:48.443Z,28.06
2018-08-11T05:24:29.197Z,28.06
2018-08-11T05:25:09.930Z,28.06
2018-08-11T05:25:50.650Z,28.17
2018-08-11T05:26:31.505Z,28.04
2018-08-11T05:27:12.329Z,28.04
2018-08-11T05:27:53.197Z,28.04
2018-08-11T05:28:33.938Z,28.02
2018-08-11T05:29:14.625Z,28.07
2018-08-11T05:29:55.336Z,28.11
2018-08-11T05:30:36.139Z,28.06
2018-08-11T05:31:16.975Z,28.09
2018-08-11T05:31:57.744Z,28.11
2018-08-11T05:32:38.483Z,28.11
2018-08-11T05:33:19.415Z,28.06
2018-08-11T05:34:00.159Z,28.03
2018-08-11T05:34:40.986Z,28.09
2018-08-11T05:35:21.707Z,28.09
2018-08-11T05:36:02.443Z,28.14
2018-08-11T05:36:43.187Z,28.14
2018-08-11T05:37:23.972Z,28.14
2018-08-11T05:38:04.795Z,28.14
2018-08-11T05:38:45.650Z,28.21
2018-08-11T05:39:26.405Z,28.15
2018-08-11T05:40:07.184Z,28.21
2018-08-11T05:40:47.989Z,28.09
2018-08-11T05:41:28.793Z,28.14
2018-08-11T05:42:09.536Z,28.17
2018-08-11T05:42:50.258Z,28.12
2018-08-11T05:43:31.025Z,28.12
2018-08-11T05:44:11.850Z,28.14
2018-08-11T05:44:52.673Z,28.12
2018-08-11T05:45:33.417Z,28.17
2018-08-11T05:46:14.195Z,28.22
2018-08-11T05:46:55.043Z,28.15
2018-08-11T05:47:35.887Z,28.14
2018-08-11T05:48:16.628Z,28.18
2018-08-11T05:48:57.417Z,28.15
2018-08-11T05:49:38.227Z,28.09
2018-08-11T05:50:18.980Z,28.15
2018-08-11T05:50:59.710Z,28.17
2018-08-11T05:51:40.442Z,28.11
2018-08-11T05:52:21.214Z,28.15
2018-08-11T05:53:02.095Z,28.14
2018-08-11T05:53:42.863Z,28.12
2018-08-11T05:54:23.690Z,28.12
2018-08-11T05:55:04.453Z,28.17
2018-08-11T05:55:45.186Z,28.18
2018-08-11T05:56:25.951Z,28.21
2018-08-11T05:57:06.750Z,28.15
2018-08-11T05:57:47.546Z,28.15
2018-08-11T05:58:28.276Z,28.21
2018-08-11T05:59:09.094Z,28.18
2018-08-11T05:59:49.908Z,28.19
2018-08-11T06:00:30.803Z,28.18
2018-08-11T06:01:11.564Z,28.25
2018-08-11T06:01:52.350Z,28.22
2018-08-11T06:02:33.106Z,28.19
2018-08-11T06:03:13.905Z,28.21
2018-08-11T06:03:54.773Z,28.24
2018-08-11T06:04:35.517Z,28.15
2018-08-11T06:05:16.380Z,28.12
2018-08-11T06:05:57.103Z,28.21
2018-08-11T06:06:37.868Z,28.25
2018-08-11T06:07:18.719Z,28.21
2018-08-11T06:07:59.481Z,28.3
2018-08-11T06:08:40.239Z,28.3
2018-08-11T06:09:21.008Z,28.27
2018-08-11T06:10:01.876Z,28.36
2018-08-11T06:10:42.735Z,28.3
2018-08-11T06:11:23.558Z,28.3
2018-08-11T06:12:04.355Z,28.36
2018-08-11T06:12:45.092Z,28.36
2018-08-11T06:13:25.854Z,28.39
2018-08-11T06:14:06.621Z,28.37
2018-08-11T06:14:47.464Z,28.46
2018-08-11T06:15:28.169Z,28.43
2018-08-11T06:16:08.921Z,28.37
2018-08-11T06:16:49.742Z,28.34
2018-08-11T06:17:30.548Z,28.44
2018-08-11T06:18:11.361Z,28.33
2018-08-11T06:18:52.085Z,28.44
2018-08-11T06:19:32.892Z,28.39
2018-08-11T06:20:13.722Z,28.43
2018-08-11T06:20:54.433Z,28.44
2018-08-11T06:21:35.229Z,28.4
2018-08-11T06:22:15.970Z,28.33
2018-08-11T06:22:56.739Z,28.43
2018-08-11T06:23:37.658Z,28.41
2018-08-11T06:24:18.427Z,28.39
2018-08-11T06:24:59.187Z,28.52
2018-08-11T06:25:40.010Z,28.49
2018-08-11T06:26:20.778Z,28.54
2018-08-11T06:27:01.581Z,28.56
2018-08-11T06:27:42.302Z,28.71
2018-08-11T06:28:23.046Z,28.7
2018-08-11T06:29:03.849Z,28.8
2018-08-11T06:29:44.664Z,28.85
2018-08-11T06:30:25.560Z,28.88
2018-08-11T06:31:06.405Z,28.88
2018-08-11T06:31:47.193Z,28.9
2018-08-11T06:32:27.845Z,28.9
2018-08-11T06:33:08.700Z,29.12
2018-08-11T06:33:49.391Z,29.02
2018-08-11T06:34:30.122Z,29.12
2018-08-11T06:35:10.934Z,29.23
2018-08-11T06:35:51.753Z,29.15
2018-08-11T06:36:32.606Z,29.23
2018-08-11T06:37:13.321Z,29.19
2018-08-11T06:37:54.077Z,29.21
2018-08-11T06:38:34.935Z,29.15
2018-08-11T06:39:15.722Z,29.23
2018-08-11T06:39:56.559Z,29.18
2018-08-11T06:40:37.384Z,29.23
2018-08-11T06:41:18.066Z,29.26
2018-08-11T06:41:58.904Z,29.16
2018-08-11T06:42:39.661Z,29.09
2018-08-11T06:43:20.417Z,29.04
2018-08-11T06:44:01.139Z,28.9
2018-08-11T06:44:41.936Z,28.95
2018-08-11T06:45:22.754Z,28.92
2018-08-11T06:46:03.583Z,28.86
2018-08-11T06:46:44.403Z,28.88
2018-08-11T06:47:25.077Z,28.8
2018-08-11T06:48:05.816Z,28.81
2018-08-11T06:48:46.567Z,28.71
2018-08-11T06:49:27.398Z,28.77
2018-08-11T06:50:08.178Z,28.71
2018-08-11T06:50:48.979Z,28.67
2018-08-11T06:51:29.803Z,28.7
2018-08-11T06:52:10.574Z,28.7
2018-08-11T06:52:51.450Z,28.62
2018-08-11T06:53:32.170Z,28.7
2018-08-11T06:54:12.980Z,28.66
2018-08-11T06:54:53.803Z,28.66
2018-08-11T06:55:34.613Z,28.71
2018-08-11T06:56:15.288Z,28.7
2018-08-11T06:56:55.995Z,28.64
2018-08-11T06:57:36.779Z,28.71
2018-08-11T06:58:17.624Z,28.73
2018-08-11T06:58:58.336Z,28.7
2018-08-11T06:59:39.116Z,28.67
2018-08-11T07:00:19.942Z,28.73
2018-08-11T07:01:00.789Z,28.74
2018-08-11T07:01:41.659Z,28.7
2018-08-11T07:02:22.390Z,28.7
2018-08-11T07:03:03.207Z,28.67
2018-08-11T07:03:43.957Z,28.64
2018-08-11T07:04:24.847Z,28.59
2018-08-11T07:05:05.610Z,28.64
2018-08-11T07:05:46.535Z,28.56
2018-08-11T07:06:27.294Z,28.61
2018-08-11T07:07:08.173Z,28.58
2018-08-11T07:07:49.009Z,28.62
2018-08-11T07:08:29.773Z,28.59
2018-08-11T07:09:10.532Z,28.62
2018-08-11T07:09:51.265Z,28.59
2018-08-11T07:10:32.095Z,28.54
2018-08-11T07:11:12.944Z,28.61
2018-08-11T07:11:53.733Z,28.62
2018-08-11T07:12:34.513Z,28.61
2018-08-11T07:13:15.253Z,28.56
2018-08-11T07:13:55.981Z,28.56
2018-08-11T07:14:36.705Z,28.46
2018-08-11T07:15:17.608Z,28.49
2018-08-11T07:15:58.332Z,28.59
2018-08-11T07:16:39.065Z,28.61
2018-08-11T07:17:19.817Z,28.61
2018-08-11T07:18:00.611Z,28.59
2018-08-11T07:18:41.479Z,28.58
2018-08-11T07:19:22.203Z,28.66
2018-08-11T07:20:02.955Z,28.68
2018-08-11T07:20:43.724Z,28.68
2018-08-11T07:21:24.558Z,28.67
2018-08-11T07:22:05.373Z,28.7
2018-08-11T07:22:46.159Z,28.71
2018-08-11T07:23:26.986Z,28.7
2018-08-11T07:24:07.743Z,28.76
2018-08-11T07:24:48.596Z,28.66
2018-08-11T07:25:29.439Z,28.68
2018-08-11T07:26:10.182Z,28.76
2018-08-11T07:26:51.612Z,28.76
2018-08-11T07:27:32.474Z,28.76
2018-08-11T07:28:13.433Z,28.66
2018-08-11T07:28:54.358Z,28.67
2018-08-11T07:29:35.130Z,28.73
2018-08-11T07:30:16.051Z,28.77
2018-08-11T07:30:56.873Z,28.8
2018-08-11T07:31:37.804Z,28.76
2018-08-11T07:32:18.577Z,28.81
2018-08-11T07:32:59.319Z,28.78
2018-08-11T07:33:40.218Z,28.86
2018-08-11T07:34:21.050Z,28.9
2018-08-11T07:35:01.852Z,28.88
2018-08-11T07:35:42.573Z,28.93
2018-08-11T07:36:23.502Z,28.96
2018-08-11T07:37:04.246Z,28.88
2018-08-11T07:37:45.098Z,29
2018-08-11T07:38:26.004Z,29
2018-08-11T07:39:06.779Z,28.98
2018-08-11T07:39:47.588Z,29.05
2018-08-11T07:40:28.487Z,28.95
2018-08-11T07:41:09.523Z,28.95
2018-08-11T07:41:50.312Z,29.08
2018-08-11T07:42:31.107Z,29.05
2018-08-11T07:43:11.881Z,28.96
2018-08-11T07:43:52.752Z,29.04
2018-08-11T07:44:33.606Z,29.09
2018-08-11T07:45:14.474Z,29.12
2018-08-11T07:45:55.305Z,29.08
2018-08-11T07:46:36.071Z,29.12
2018-08-11T07:47:17.078Z,29.15
2018-08-11T07:47:57.940Z,29.11
2018-08-11T07:48:38.804Z,29.21
2018-08-11T07:49:19.680Z,29.23
2018-08-11T07:50:00.619Z,29.14
2018-08-11T07:50:41.386Z,29.24
2018-08-11T07:51:22.250Z,29.24
2018-08-11T07:52:03.188Z,29.19
2018-08-11T07:52:43.864Z,29.27
2018-08-11T07:53:24.617Z,29.43
2018-08-11T07:54:05.451Z,29.49
2018-08-11T07:54:47.007Z,29.52
2018-08-11T07:55:27.866Z,29.63
2018-08-11T07:56:09.124Z,29.61
2018-08-11T07:56:49.970Z,29.61
2018-08-11T07:57:30.673Z,29.6
2018-08-11T07:58:11.479Z,29.55
2018-08-11T07:58:52.388Z,29.57
2018-08-11T07:59:33.175Z,29.64
2018-08-11T08:00:13.934Z,29.63
2018-08-11T08:00:54.892Z,29.86
2018-08-11T08:01:35.980Z,30
2018-08-11T08:02:16.875Z,30.1
2018-08-11T08:02:58.029Z,30.04
2018-08-11T08:03:38.596Z,30.07
2018-08-11T08:04:19.801Z,30.07
2018-08-11T08:05:00.753Z,30.17
2018-08-11T08:05:41.906Z,30.31
2018-08-11T08:06:22.761Z,30.2
2018-08-11T08:07:03.516Z,30.26
2018-08-11T08:07:44.376Z,30.13
2018-08-11T08:08:25.659Z,29.97
2018-08-11T08:09:06.173Z,29.94
2018-08-11T08:09:47.405Z,29.87
2018-08-11T08:10:28.249Z,29.73
2018-08-11T08:11:09.549Z,29.63
2018-08-11T08:11:50.418Z,29.64
2018-08-11T08:12:31.173Z,29.57
2018-08-11T08:13:11.947Z,29.57
2018-08-11T08:13:52.768Z,29.53
2018-08-11T08:14:33.612Z,29.48
2018-08-11T08:15:14.780Z,29.45
2018-08-11T08:15:55.628Z,29.48
2018-08-11T08:16:36.358Z,29.55
2018-08-11T08:17:17.250Z,29.7
2018-08-11T08:17:58.050Z,29.89
2018-08-11T08:18:38.826Z,30.01
2018-08-11T08:19:19.699Z,30.16
2018-08-11T08:20:00.483Z,30.31
2018-08-11T08:20:41.353Z,30.35
2018-08-11T08:21:22.195Z,30.49
2018-08-11T08:22:03.105Z,30.65
2018-08-11T08:22:43.874Z,30.77
2018-08-11T08:23:24.669Z,30.83
2018-08-11T08:24:05.503Z,30.84
2018-08-11T08:24:46.472Z,30.94
2018-08-11T08:25:27.336Z,30.95
2018-08-11T08:26:08.165Z,30.99
2018-08-11T08:26:49.593Z,31.07
2018-08-11T08:27:30.376Z,31.16
2018-08-11T08:28:11.251Z,31.04
2018-08-11T08:28:52.043Z,31.01
2018-08-11T08:29:32.792Z,31.06
2018-08-11T08:30:13.588Z,30.92
2018-08-11T08:30:54.333Z,30.97
2018-08-11T08:31:35.181Z,31.04
2018-08-11T08:32:15.979Z,31.04
2018-08-11T08:32:56.821Z,31.02
2018-08-11T08:33:37.608Z,30.89
2018-08-11T08:34:18.499Z,31.04
2018-08-11T08:34:59.262Z,30.94
2018-08-11T08:35:40.250Z,31.06
2018-08-11T08:36:21.054Z,31.07
2018-08-11T08:37:01.872Z,31.02
2018-08-11T08:37:43.038Z,31.04
2018-08-11T08:38:24.123Z,30.94
2018-08-11T08:39:05.097Z,30.88
2018-08-11T08:39:45.723Z,30.82
2018-08-11T08:40:26.854Z,30.76
2018-08-11T08:41:07.738Z,30.82
2018-08-11T08:41:48.579Z,30.82
2018-08-11T08:42:29.337Z,30.8
2018-08-11T08:43:10.299Z,30.79
2018-08-11T08:43:51.179Z,30.72
2018-08-11T08:44:32.089Z,30.65
2018-08-11T08:45:13.097Z,30.67
2018-08-11T08:45:54.037Z,30.57
2018-08-11T08:46:34.981Z,30.53
2018-08-11T08:47:16.008Z,30.47